Terminal Aerodrome Forecast
Issued by NWS

Home | Current Version | Previous Version | Text Only | Print | Product List | Glossary On
Versions: 1 2 3 4 5 6 7 8 9 10 11 12 13 14 15 16 17
000
FTUS44 KEPZ 181900 AAA
TAFDMN
TAF AMD
KDMN 181901Z 1819/1918 08011KT P6SM -SHRA BKN015 OVC025
      TEMPO 1819/1821 3SM SHRA SCT015 BKN035
     FM182100 04006KT P6SM VCSH SCT015 BKN025
     FM190200 27007KT P6SM VCSH SCT025 BKN040
     FM190700 28005KT P6SM SCT030 BKN080 OVC120=

USA.gov is the U.S. government's official web portal to all federal, state and local government web resources and services.